sensor_id;sensor_type;location;lat;lon;timestamp;P1;durP1;ratioP1;P2;durP2;ratioP2
31224;SDS011;17847;31.524;74.366;2022-12-22T00:01:55;350.55;;;114.22;;
31224;SDS011;17847;31.524;74.366;2022-12-22T00:04:51;340.48;;;111.65;;
31224;SDS011;17847;31.524;74.366;2022-12-22T00:08:05;319.70;;;108.13;;
31224;SDS011;17847;31.524;74.366;2022-12-22T00:11:09;313.45;;;106.30;;
31224;SDS011;17847;31.524;74.366;2022-12-22T00:14:24;307.63;;;108.68;;
31224;SDS011;17847;31.524;74.366;2022-12-22T00:17:23;328.85;;;109.47;;
31224;SDS011;17847;31.524;74.366;2022-12-22T00:20:38;329.25;;;109.97;;
31224;SDS011;17847;31.524;74.366;2022-12-22T00:23:32;340.02;;;113.30;;
31224;SDS011;17847;31.524;74.366;2022-12-22T00:26:46;341.05;;;116.13;;
31224;SDS011;17847;31.524;74.366;2022-12-22T00:29:46;341.58;;;113.05;;
31224;SDS011;17847;31.524;74.366;2022-12-22T00:33:01;336.75;;;116.50;;
31224;SDS011;17847;31.524;74.366;2022-12-22T00:35:57;344.35;;;115.70;;
31224;SDS011;17847;31.524;74.366;2022-12-22T00:39:11;341.20;;;118.53;;
31224;SDS011;17847;31.524;74.366;2022-12-22T00:42:25;333.45;;;110.18;;
31224;SDS011;17847;31.524;74.366;2022-12-22T00:45:18;315.55;;;110.88;;
31224;SDS011;17847;31.524;74.366;2022-12-22T00:48:32;335.65;;;113.65;;
31224;SDS011;17847;31.524;74.366;2022-12-22T00:51:33;346.92;;;114.25;;
31224;SDS011;17847;31.524;74.366;2022-12-22T00:54:40;349.67;;;114.85;;
31224;SDS011;17847;31.524;74.366;2022-12-22T00:57:40;341.55;;;113.80;;
31224;SDS011;17847;31.524;74.366;2022-12-22T01:00:48;343.17;;;119.50;;
31224;SDS011;17847;31.524;74.366;2022-12-22T01:03:49;335.02;;;113.60;;
31224;SDS011;17847;31.524;74.366;2022-12-22T01:06:56;352.95;;;121.28;;
31224;SDS011;17847;31.524;74.366;2022-12-22T01:09:57;342.13;;;121.03;;
31224;SDS011;17847;31.524;74.366;2022-12-22T01:13:12;349.70;;;122.30;;
31224;SDS011;17847;31.524;74.366;2022-12-22T01:16:27;377.55;;;128.05;;
31224;SDS011;17847;31.524;74.366;2022-12-22T01:19:27;383.88;;;125.68;;
31224;SDS011;17847;31.524;74.366;2022-12-22T01:22:35;391.95;;;132.80;;
31224;SDS011;17847;31.524;74.366;2022-12-22T01:25:35;382.40;;;133.98;;
31224;SDS011;17847;31.524;74.366;2022-12-22T01:28:42;371.45;;;123.43;;
31224;SDS011;17847;31.524;74.366;2022-12-22T01:31:42;342.17;;;114.97;;
31224;SDS011;17847;31.524;74.366;2022-12-22T01:34:49;345.13;;;115.60;;
31224;SDS011;17847;31.524;74.366;2022-12-22T01:37:49;349.67;;;115.80;;
31224;SDS011;17847;31.524;74.366;2022-12-22T01:40:56;341.63;;;118.25;;
31224;SDS011;17847;31.524;74.366;2022-12-22T01:43:58;357.50;;;121.05;;
31224;SDS011;17847;31.524;74.366;2022-12-22T01:47:28;330.83;;;119.13;;
31224;SDS011;17847;31.524;74.366;2022-12-22T01:50:33;339.00;;;120.50;;
31224;SDS011;17847;31.524;74.366;2022-12-22T01:53:48;365.27;;;124.88;;
31224;SDS011;17847;31.524;74.366;2022-12-22T01:56:49;359.20;;;122.00;;
31224;SDS011;17847;31.524;74.366;2022-12-22T01:59:57;363.30;;;126.10;;
31224;SDS011;17847;31.524;74.366;2022-12-22T02:02:56;358.20;;;122.07;;
31224;SDS011;17847;31.524;74.366;2022-12-22T02:06:13;336.33;;;118.38;;
31224;SDS011;17847;31.524;74.366;2022-12-22T02:09:32;336.65;;;119.25;;
31224;SDS011;17847;31.524;74.366;2022-12-22T02:29:40;336.80;;;119.15;;
31224;SDS011;17847;31.524;74.366;2022-12-22T02:32:51;329.20;;;114.47;;
31224;SDS011;17847;31.524;74.366;2022-12-22T02:49:54;377.00;;;130.70;;
31224;SDS011;17847;31.524;74.366;2022-12-22T02:53:23;366.60;;;127.65;;
31224;SDS011;17847;31.524;74.366;2022-12-22T02:56:38;344.02;;;123.60;;
31224;SDS011;17847;31.524;74.366;2022-12-22T02:59:40;338.27;;;122.05;;
31224;SDS011;17847;31.524;74.366;2022-12-22T03:02:54;347.80;;;120.57;;
31224;SDS011;17847;31.524;74.366;2022-12-22T03:05:54;375.30;;;127.55;;
31224;SDS011;17847;31.524;74.366;2022-12-22T03:09:02;393.13;;;137.98;;
31224;SDS011;17847;31.524;74.366;2022-12-22T03:12:03;390.70;;;136.40;;
31224;SDS011;17847;31.524;74.366;2022-12-22T03:15:09;416.17;;;138.07;;
31224;SDS011;17847;31.524;74.366;2022-12-22T03:18:10;398.98;;;136.43;;
31224;SDS011;17847;31.524;74.366;2022-12-22T03:21:19;393.92;;;139.73;;
31224;SDS011;17847;31.524;74.366;2022-12-22T03:24:19;415.83;;;143.75;;
31224;SDS011;17847;31.524;74.366;2022-12-22T03:27:33;423.45;;;157.05;;
31224;SDS011;17847;31.524;74.366;2022-12-22T03:30:15;410.63;;;150.52;;
31224;SDS011;17847;31.524;74.366;2022-12-22T03:33:04;481.55;;;157.52;;
31224;SDS011;17847;31.524;74.366;2022-12-22T03:35:47;431.00;;;147.23;;
31224;SDS011;17847;31.524;74.366;2022-12-22T03:38:35;412.70;;;150.07;;
31224;SDS011;17847;31.524;74.366;2022-12-22T03:41:18;398.92;;;144.18;;
31224;SDS011;17847;31.524;74.366;2022-12-22T03:44:24;418.13;;;152.23;;
31224;SDS011;17847;31.524;74.366;2022-12-22T03:47:24;437.85;;;154.32;;
31224;SDS011;17847;31.524;74.366;2022-12-22T03:50:13;426.52;;;154.98;;
31224;SDS011;17847;31.524;74.366;2022-12-22T03:52:55;433.98;;;155.10;;
31224;SDS011;17847;31.524;74.366;2022-12-22T03:55:44;442.92;;;158.48;;
31224;SDS011;17847;31.524;74.366;2022-12-22T03:58:26;447.05;;;157.27;;
31224;SDS011;17847;31.524;74.366;2022-12-22T04:01:22;439.10;;;159.25;;
31224;SDS011;17847;31.524;74.366;2022-12-22T04:03:57;441.02;;;156.18;;
31224;SDS011;17847;31.524;74.366;2022-12-22T04:06:53;429.13;;;158.23;;
31224;SDS011;17847;31.524;74.366;2022-12-22T04:09:28;441.48;;;157.50;;
31224;SDS011;17847;31.524;74.366;2022-12-22T04:12:44;430.50;;;153.40;;
31224;SDS011;17847;31.524;74.366;2022-12-22T04:15:30;447.30;;;160.60;;
31224;SDS011;17847;31.524;74.366;2022-12-22T04:18:26;445.05;;;160.77;;
31224;SDS011;17847;31.524;74.366;2022-12-22T04:21:01;443.58;;;158.93;;
31224;SDS011;17847;31.524;74.366;2022-12-22T04:23:57;419.42;;;157.15;;
31224;SDS011;17847;31.524;74.366;2022-12-22T04:26:39;406.77;;;146.85;;
31224;SDS011;17847;31.524;74.366;2022-12-22T04:29:28;414.33;;;149.23;;
31224;SDS011;17847;31.524;74.366;2022-12-22T04:32:04;407.67;;;149.43;;
31224;SDS011;17847;31.524;74.366;2022-12-22T04:35:01;433.13;;;157.68;;
31224;SDS011;17847;31.524;74.366;2022-12-22T04:37:43;422.15;;;155.15;;
31224;SDS011;17847;31.524;74.366;2022-12-22T04:40:32;427.60;;;157.27;;
31224;SDS011;17847;31.524;74.366;2022-12-22T04:43:08;429.27;;;157.13;;
31224;SDS011;17847;31.524;74.366;2022-12-22T04:46:07;457.85;;;169.35;;
31224;SDS011;17847;31.524;74.366;2022-12-22T04:48:42;460.52;;;170.73;;
31224;SDS011;17847;31.524;74.366;2022-12-22T04:51:39;462.67;;;165.93;;
31224;SDS011;17847;31.524;74.366;2022-12-22T04:54:20;457.88;;;171.15;;
31224;SDS011;17847;31.524;74.366;2022-12-22T04:57:09;467.05;;;169.30;;
31224;SDS011;17847;31.524;74.366;2022-12-22T04:59:51;469.17;;;171.02;;
31224;SDS011;17847;31.524;74.366;2022-12-22T05:02:42;456.23;;;170.95;;
31224;SDS011;17847;31.524;74.366;2022-12-22T05:05:23;451.83;;;169.10;;
31224;SDS011;17847;31.524;74.366;2022-12-22T05:08:13;453.73;;;172.18;;
31224;SDS011;17847;31.524;74.366;2022-12-22T05:10:54;456.00;;;172.15;;
31224;SDS011;17847;31.524;74.366;2022-12-22T05:13:43;478.27;;;176.02;;
31224;SDS011;17847;31.524;74.366;2022-12-22T05:16:24;465.20;;;171.07;;
31224;SDS011;17847;31.524;74.366;2022-12-22T05:19:13;470.88;;;178.48;;
31224;SDS011;17847;31.524;74.366;2022-12-22T05:21:48;463.77;;;173.35;;
31224;SDS011;17847;31.524;74.366;2022-12-22T05:24:44;462.48;;;170.45;;
31224;SDS011;17847;31.524;74.366;2022-12-22T05:27:26;463.88;;;173.55;;
31224;SDS011;17847;31.524;74.366;2022-12-22T05:30:15;465.35;;;172.77;;
31224;SDS011;17847;31.524;74.366;2022-12-22T05:32:59;455.40;;;176.45;;
31224;SDS011;17847;31.524;74.366;2022-12-22T05:35:55;486.15;;;177.55;;
31224;SDS011;17847;31.524;74.366;2022-12-22T05:38:30;475.23;;;172.85;;
31224;SDS011;17847;31.524;74.366;2022-12-22T05:41:27;457.02;;;177.13;;
31224;SDS011;17847;31.524;74.366;2022-12-22T05:44:09;471.02;;;178.48;;
31224;SDS011;17847;31.524;74.366;2022-12-22T05:46:58;467.27;;;179.27;;
31224;SDS011;17847;31.524;74.366;2022-12-22T05:49:40;452.05;;;167.55;;
31224;SDS011;17847;31.524;74.366;2022-12-22T05:52:36;457.90;;;171.63;;
31224;SDS011;17847;31.524;74.366;2022-12-22T05:55:32;450.08;;;169.75;;
31224;SDS011;17847;31.524;74.366;2022-12-22T05:58:15;460.75;;;176.70;;
31224;SDS011;17847;31.524;74.366;2022-12-22T06:01:04;454.67;;;174.50;;
31224;SDS011;17847;31.524;74.366;2022-12-22T06:03:46;442.98;;;171.05;;
31224;SDS011;17847;31.524;74.366;2022-12-22T06:06:39;423.95;;;163.50;;
31224;SDS011;17847;31.524;74.366;2022-12-22T06:09:21;443.92;;;168.90;;
31224;SDS011;17847;31.524;74.366;2022-12-22T06:12:10;441.60;;;166.82;;
31224;SDS011;17847;31.524;74.366;2022-12-22T06:14:52;430.98;;;161.20;;
31224;SDS011;17847;31.524;74.366;2022-12-22T06:17:41;412.00;;;159.88;;
31224;SDS011;17847;31.524;74.366;2022-12-22T06:20:23;408.27;;;157.07;;
31224;SDS011;17847;31.524;74.366;2022-12-22T06:23:12;424.35;;;160.63;;
31224;SDS011;17847;31.524;74.366;2022-12-22T06:25:59;410.92;;;160.20;;
31224;SDS011;17847;31.524;74.366;2022-12-22T06:28:48;422.48;;;164.25;;
31224;SDS011;17847;31.524;74.366;2022-12-22T06:31:30;424.40;;;161.05;;
31224;SDS011;17847;31.524;74.366;2022-12-22T06:34:19;425.65;;;162.43;;
31224;SDS011;17847;31.524;74.366;2022-12-22T06:37:02;424.33;;;163.30;;
31224;SDS011;17847;31.524;74.366;2022-12-22T06:39:51;414.58;;;160.52;;
31224;SDS011;17847;31.524;74.366;2022-12-22T06:42:33;433.17;;;162.93;;
31224;SDS011;17847;31.524;74.366;2022-12-22T06:45:49;432.20;;;172.13;;
31224;SDS011;17847;31.524;74.366;2022-12-22T06:48:31;435.15;;;177.50;;
31224;SDS011;17847;31.524;74.366;2022-12-22T06:51:20;453.50;;;178.85;;
31224;SDS011;17847;31.524;74.366;2022-12-22T06:54:09;443.02;;;175.50;;
31224;SDS011;17847;31.524;74.366;2022-12-22T06:56:59;443.85;;;178.35;;
31224;SDS011;17847;31.524;74.366;2022-12-22T06:59:48;468.70;;;179.07;;
31224;SDS011;17847;31.524;74.366;2022-12-22T07:02:30;450.40;;;177.27;;
31224;SDS011;17847;31.524;74.366;2022-12-22T07:05:20;446.95;;;183.02;;
31224;SDS011;17847;31.524;74.366;2022-12-22T07:08:04;460.77;;;188.98;;
31224;SDS011;17847;31.524;74.366;2022-12-22T07:10:54;458.83;;;186.80;;
31224;SDS011;17847;31.524;74.366;2022-12-22T07:13:33;440.45;;;177.88;;
31224;SDS011;17847;31.524;74.366;2022-12-22T07:16:29;449.15;;;187.73;;
31224;SDS011;17847;31.524;74.366;2022-12-22T07:19:10;444.10;;;193.77;;
31224;SDS011;17847;31.524;74.366;2022-12-22T07:22:00;463.17;;;195.65;;
31224;SDS011;17847;31.524;74.366;2022-12-22T07:24:43;447.38;;;187.70;;
31224;SDS011;17847;31.524;74.366;2022-12-22T07:27:32;449.33;;;195.10;;
31224;SDS011;17847;31.524;74.366;2022-12-22T07:30:14;463.35;;;187.13;;
31224;SDS011;17847;31.524;74.366;2022-12-22T07:33:03;440.75;;;182.45;;
31224;SDS011;17847;31.524;74.366;2022-12-22T07:35:46;427.33;;;178.02;;
31224;SDS011;17847;31.524;74.366;2022-12-22T07:38:42;426.02;;;169.27;;
31224;SDS011;17847;31.524;74.366;2022-12-22T07:41:25;406.70;;;168.35;;
31224;SDS011;17847;31.524;74.366;2022-12-22T07:44:33;407.48;;;164.20;;
31224;SDS011;17847;31.524;74.366;2022-12-22T07:47:15;438.35;;;175.55;;
31224;SDS011;17847;31.524;74.366;2022-12-22T07:50:13;410.85;;;171.75;;
31224;SDS011;17847;31.524;74.366;2022-12-22T07:53:08;416.90;;;171.43;;
31224;SDS011;17847;31.524;74.366;2022-12-22T07:56:04;415.17;;;169.98;;
31224;SDS011;17847;31.524;74.366;2022-12-22T07:58:46;409.63;;;168.70;;
31224;SDS011;17847;31.524;74.366;2022-12-22T08:01:35;416.27;;;171.95;;
31224;SDS011;17847;31.524;74.366;2022-12-22T08:04:16;391.33;;;161.68;;
31224;SDS011;17847;31.524;74.366;2022-12-22T08:07:07;396.92;;;159.18;;
31224;SDS011;17847;31.524;74.366;2022-12-22T08:09:49;398.85;;;160.80;;
31224;SDS011;17847;31.524;74.366;2022-12-22T08:12:38;400.77;;;158.80;;
31224;SDS011;17847;31.524;74.366;2022-12-22T08:15:20;379.67;;;157.90;;
31224;SDS011;17847;31.524;74.366;2022-12-22T08:18:09;406.38;;;160.60;;
31224;SDS011;17847;31.524;74.366;2022-12-22T08:20:52;402.27;;;160.77;;
31224;SDS011;17847;31.524;74.366;2022-12-22T08:23:40;380.20;;;155.82;;
31224;SDS011;17847;31.524;74.366;2022-12-22T08:26:24;372.85;;;150.80;;
31224;SDS011;17847;31.524;74.366;2022-12-22T08:29:19;347.25;;;144.30;;
31224;SDS011;17847;31.524;74.366;2022-12-22T08:32:04;370.60;;;147.43;;
31224;SDS011;17847;31.524;74.366;2022-12-22T08:34:53;348.27;;;145.25;;
31224;SDS011;17847;31.524;74.366;2022-12-22T08:37:36;356.00;;;144.23;;
31224;SDS011;17847;31.524;74.366;2022-12-22T08:40:29;341.70;;;141.07;;
31224;SDS011;17847;31.524;74.366;2022-12-22T08:43:13;341.17;;;139.07;;
31224;SDS011;17847;31.524;74.366;2022-12-22T08:46:12;344.50;;;142.45;;
31224;SDS011;17847;31.524;74.366;2022-12-22T08:48:53;330.40;;;141.57;;
31224;SDS011;17847;31.524;74.366;2022-12-22T08:51:42;350.98;;;138.68;;
31224;SDS011;17847;31.524;74.366;2022-12-22T08:54:31;321.20;;;132.38;;
31224;SDS011;17847;31.524;74.366;2022-12-22T08:57:15;332.17;;;131.77;;
31224;SDS011;17847;31.524;74.366;2022-12-22T09:00:04;321.98;;;134.65;;
31224;SDS011;17847;31.524;74.366;2022-12-22T09:02:48;322.17;;;131.90;;
31224;SDS011;17847;31.524;74.366;2022-12-22T09:05:37;329.88;;;133.57;;
31224;SDS011;17847;31.524;74.366;2022-12-22T09:08:19;319.45;;;132.40;;
31224;SDS011;17847;31.524;74.366;2022-12-22T09:11:08;325.52;;;132.45;;
31224;SDS011;17847;31.524;74.366;2022-12-22T09:13:51;310.73;;;130.10;;
31224;SDS011;17847;31.524;74.366;2022-12-22T09:16:41;324.13;;;130.10;;
31224;SDS011;17847;31.524;74.366;2022-12-22T09:19:23;316.90;;;129.35;;
31224;SDS011;17847;31.524;74.366;2022-12-22T09:22:12;321.90;;;129.10;;
31224;SDS011;17847;31.524;74.366;2022-12-22T09:25:02;309.48;;;122.50;;
31224;SDS011;17847;31.524;74.366;2022-12-22T09:27:51;291.10;;;120.95;;
31224;SDS011;17847;31.524;74.366;2022-12-22T09:30:33;292.08;;;115.88;;
31224;SDS011;17847;31.524;74.366;2022-12-22T09:33:29;290.65;;;119.38;;
31224;SDS011;17847;31.524;74.366;2022-12-22T09:36:06;291.52;;;116.22;;
31224;SDS011;17847;31.524;74.366;2022-12-22T09:39:06;297.90;;;119.03;;
31224;SDS011;17847;31.524;74.366;2022-12-22T09:41:54;270.38;;;117.65;;
31224;SDS011;17847;31.524;74.366;2022-12-22T09:44:44;279.95;;;114.47;;
31224;SDS011;17847;31.524;74.366;2022-12-22T09:50:23;284.85;;;108.97;;
31224;SDS011;17847;31.524;74.366;2022-12-22T09:53:21;271.38;;;112.68;;
31224;SDS011;17847;31.524;74.366;2022-12-22T09:56:18;264.77;;;108.00;;
31224;SDS011;17847;31.524;74.366;2022-12-22T09:59:00;262.65;;;106.72;;
31224;SDS011;17847;31.524;74.366;2022-12-22T10:08:20;279.90;;;108.32;;
31224;SDS011;17847;31.524;74.366;2022-12-22T10:11:16;273.80;;;109.13;;
31224;SDS011;17847;31.524;74.366;2022-12-22T10:14:07;272.83;;;110.70;;
31224;SDS011;17847;31.524;74.366;2022-12-22T10:17:07;261.40;;;107.32;;
31224;SDS011;17847;31.524;74.366;2022-12-22T10:20:23;265.65;;;106.07;;
31224;SDS011;17847;31.524;74.366;2022-12-22T10:23:23;269.80;;;108.88;;
31224;SDS011;17847;31.524;74.366;2022-12-22T10:26:28;278.13;;;109.25;;
31224;SDS011;17847;31.524;74.366;2022-12-22T10:29:14;267.27;;;107.18;;
31224;SDS011;17847;31.524;74.366;2022-12-22T10:32:12;268.80;;;110.85;;
31224;SDS011;17847;31.524;74.366;2022-12-22T10:34:57;275.73;;;111.22;;
31224;SDS011;17847;31.524;74.366;2022-12-22T10:37:54;258.35;;;106.25;;
31224;SDS011;17847;31.524;74.366;2022-12-22T10:40:58;263.50;;;109.88;;
31224;SDS011;17847;31.524;74.366;2022-12-22T10:43:52;241.22;;;101.94;;
31224;SDS011;17847;31.524;74.366;2022-12-22T10:46:47;275.33;;;114.60;;
31224;SDS011;17847;31.524;74.366;2022-12-22T10:49:38;280.48;;;112.50;;
31224;SDS011;17847;31.524;74.366;2022-12-22T10:52:37;269.10;;;115.20;;
31224;SDS011;17847;31.524;74.366;2022-12-22T10:55:32;279.92;;;113.80;;
31224;SDS011;17847;31.524;74.366;2022-12-22T10:58:16;250.40;;;109.22;;
31224;SDS011;17847;31.524;74.366;2022-12-22T11:01:08;271.20;;;110.65;;
31224;SDS011;17847;31.524;74.366;2022-12-22T11:03:51;284.75;;;112.07;;
31224;SDS011;17847;31.524;74.366;2022-12-22T11:06:41;283.85;;;112.25;;
31224;SDS011;17847;31.524;74.366;2022-12-22T11:09:18;280.90;;;113.13;;
31224;SDS011;17847;31.524;74.366;2022-12-22T11:12:34;276.20;;;109.95;;
31224;SDS011;17847;31.524;74.366;2022-12-22T11:19:22;297.55;;;117.10;;
31224;SDS011;17847;31.524;74.366;2022-12-22T11:50:43;326.45;;;124.10;;
31224;SDS011;17847;31.524;74.366;2022-12-22T12:18:44;334.45;;;130.35;;
31224;SDS011;17847;31.524;74.366;2022-12-22T12:21:48;344.75;;;131.00;;
31224;SDS011;17847;31.524;74.366;2022-12-22T12:30:32;350.58;;;133.20;;
31224;SDS011;17847;31.524;74.366;2022-12-22T12:33:55;340.40;;;133.18;;
31224;SDS011;17847;31.524;74.366;2022-12-22T12:42:43;356.42;;;134.70;;
31224;SDS011;17847;31.524;74.366;2022-12-22T12:54:40;386.13;;;145.23;;
31224;SDS011;17847;31.524;74.366;2022-12-22T12:57:46;401.88;;;147.07;;
31224;SDS011;17847;31.524;74.366;2022-12-22T13:03:38;373.23;;;141.43;;
31224;SDS011;17847;31.524;74.366;2022-12-22T13:10:07;395.23;;;143.63;;
31224;SDS011;17847;31.524;74.366;2022-12-22T13:12:59;391.95;;;141.45;;
31224;SDS011;17847;31.524;74.366;2022-12-22T13:18:43;399.35;;;141.50;;
31224;SDS011;17847;31.524;74.366;2022-12-22T13:21:45;406.42;;;142.18;;
31224;SDS011;17847;31.524;74.366;2022-12-22T13:24:32;392.98;;;143.75;;
31224;SDS011;17847;31.524;74.366;2022-12-22T13:27:32;389.15;;;142.68;;
31224;SDS011;17847;31.524;74.366;2022-12-22T13:30:19;379.60;;;142.05;;
31224;SDS011;17847;31.524;74.366;2022-12-22T13:33:16;412.95;;;148.50;;
31224;SDS011;17847;31.524;74.366;2022-12-22T13:36:00;405.90;;;145.65;;
31224;SDS011;17847;31.524;74.366;2022-12-22T13:38:59;392.05;;;142.13;;
31224;SDS011;17847;31.524;74.366;2022-12-22T13:44:31;378.95;;;134.00;;
31224;SDS011;17847;31.524;74.366;2022-12-22T13:47:28;388.73;;;139.38;;
31224;SDS011;17847;31.524;74.366;2022-12-22T13:50:23;394.40;;;140.52;;
31224;SDS011;17847;31.524;74.366;2022-12-22T13:53:27;400.13;;;137.43;;
31224;SDS011;17847;31.524;74.366;2022-12-22T13:59:33;378.90;;;137.18;;
31224;SDS011;17847;31.524;74.366;2022-12-22T14:02:32;377.70;;;136.60;;
31224;SDS011;17847;31.524;74.366;2022-12-22T14:05:16;373.15;;;135.88;;
31224;SDS011;17847;31.524;74.366;2022-12-22T14:08:13;371.63;;;133.73;;
31224;SDS011;17847;31.524;74.366;2022-12-22T14:10:55;406.75;;;137.95;;
31224;SDS011;17847;31.524;74.366;2022-12-22T14:13:51;361.02;;;132.05;;
31224;SDS011;17847;31.524;74.366;2022-12-22T14:16:33;370.52;;;133.82;;
31224;SDS011;17847;31.524;74.366;2022-12-22T14:19:23;382.08;;;130.32;;
31224;SDS011;17847;31.524;74.366;2022-12-22T14:25:11;367.85;;;129.50;;
31224;SDS011;17847;31.524;74.366;2022-12-22T14:27:57;385.15;;;129.48;;
31224;SDS011;17847;31.524;74.366;2022-12-22T14:30:47;386.13;;;131.48;;
31224;SDS011;17847;31.524;74.366;2022-12-22T14:33:33;392.33;;;132.77;;
31224;SDS011;17847;31.524;74.366;2022-12-22T14:36:24;389.83;;;127.72;;
31224;SDS011;17847;31.524;74.366;2022-12-22T14:39:20;407.60;;;130.93;;
31224;SDS011;17847;31.524;74.366;2022-12-22T14:42:18;385.33;;;126.72;;
31224;SDS011;17847;31.524;74.366;2022-12-22T14:44:53;384.67;;;130.02;;
31224;SDS011;17847;31.524;74.366;2022-12-22T14:47:49;391.17;;;127.10;;
31224;SDS011;17847;31.524;74.366;2022-12-22T14:50:33;396.40;;;126.00;;
31224;SDS011;17847;31.524;74.366;2022-12-22T14:53:23;397.50;;;126.95;;
31224;SDS011;17847;31.524;74.366;2022-12-22T14:56:09;393.70;;;130.40;;
31224;SDS011;17847;31.524;74.366;2022-12-22T14:59:08;378.38;;;125.60;;
31224;SDS011;17847;31.524;74.366;2022-12-22T15:02:03;406.30;;;128.20;;
31224;SDS011;17847;31.524;74.366;2022-12-22T15:11:32;417.33;;;131.30;;
31224;SDS011;17847;31.524;74.366;2022-12-22T15:14:26;411.80;;;130.65;;
31224;SDS011;17847;31.524;74.366;2022-12-22T15:17:22;401.55;;;127.72;;
31224;SDS011;17847;31.524;74.366;2022-12-22T15:20:05;389.40;;;127.25;;
31224;SDS011;17847;31.524;74.366;2022-12-22T15:23:01;404.73;;;126.25;;
31224;SDS011;17847;31.524;74.366;2022-12-22T15:25:43;383.98;;;126.05;;
31224;SDS011;17847;31.524;74.366;2022-12-22T15:28:39;396.08;;;128.32;;
31224;SDS011;17847;31.524;74.366;2022-12-22T15:31:21;389.60;;;125.78;;
31224;SDS011;17847;31.524;74.366;2022-12-22T15:34:15;403.45;;;127.20;;
31224;SDS011;17847;31.524;74.366;2022-12-22T15:37:11;404.88;;;129.52;;
31224;SDS011;17847;31.524;74.366;2022-12-22T15:40:17;388.90;;;127.10;;
31224;SDS011;17847;31.524;74.366;2022-12-22T15:42:55;398.80;;;124.25;;
31224;SDS011;17847;31.524;74.366;2022-12-22T15:46:13;403.58;;;127.55;;
31224;SDS011;17847;31.524;74.366;2022-12-22T15:48:51;398.88;;;130.70;;
31224;SDS011;17847;31.524;74.366;2022-12-22T15:51:50;406.10;;;128.02;;
31224;SDS011;17847;31.524;74.366;2022-12-22T15:54:46;402.15;;;130.27;;
31224;SDS011;17847;31.524;74.366;2022-12-22T15:57:42;392.27;;;129.95;;
31224;SDS011;17847;31.524;74.366;2022-12-22T16:00:19;393.10;;;130.32;;
31224;SDS011;17847;31.524;74.366;2022-12-22T16:03:15;403.63;;;129.77;;
31224;SDS011;17847;31.524;74.366;2022-12-22T16:05:58;405.55;;;132.40;;
31224;SDS011;17847;31.524;74.366;2022-12-22T16:08:50;421.27;;;135.95;;
31224;SDS011;17847;31.524;74.366;2022-12-22T16:11:36;396.75;;;129.93;;
31224;SDS011;17847;31.524;74.366;2022-12-22T16:14:25;398.20;;;132.27;;
31224;SDS011;17847;31.524;74.366;2022-12-22T16:17:20;429.88;;;136.13;;
31224;SDS011;17847;31.524;74.366;2022-12-22T16:20:13;415.15;;;132.48;;
31224;SDS011;17847;31.524;74.366;2022-12-22T16:22:55;420.92;;;132.98;;
31224;SDS011;17847;31.524;74.366;2022-12-22T16:25:45;409.45;;;132.70;;
31224;SDS011;17847;31.524;74.366;2022-12-22T16:28:33;434.08;;;143.07;;
31224;SDS011;17847;31.524;74.366;2022-12-22T16:31:22;430.60;;;144.70;;
31224;SDS011;17847;31.524;74.366;2022-12-22T16:34:08;420.85;;;142.85;;
31224;SDS011;17847;31.524;74.366;2022-12-22T16:36:59;417.83;;;143.32;;
31224;SDS011;17847;31.524;74.366;2022-12-22T16:39:41;417.83;;;141.18;;
31224;SDS011;17847;31.524;74.366;2022-12-22T16:42:31;416.67;;;143.05;;
31224;SDS011;17847;31.524;74.366;2022-12-22T16:45:30;445.20;;;145.82;;
31224;SDS011;17847;31.524;74.366;2022-12-22T16:48:32;446.90;;;145.80;;
31224;SDS011;17847;31.524;74.366;2022-12-22T16:54:26;426.98;;;143.23;;
31224;SDS011;17847;31.524;74.366;2022-12-22T16:57:21;458.17;;;156.77;;
31224;SDS011;17847;31.524;74.366;2022-12-22T17:00:04;460.35;;;157.90;;
31224;SDS011;17847;31.524;74.366;2022-12-22T17:03:01;451.05;;;153.30;;
31224;SDS011;17847;31.524;74.366;2022-12-22T17:05:57;457.73;;;156.25;;
31224;SDS011;17847;31.524;74.366;2022-12-22T17:08:56;448.63;;;155.85;;
31224;SDS011;17847;31.524;74.366;2022-12-22T17:11:38;465.55;;;155.32;;
31224;SDS011;17847;31.524;74.366;2022-12-22T17:14:30;451.13;;;153.30;;
31224;SDS011;17847;31.524;74.366;2022-12-22T17:17:17;426.98;;;150.55;;
31224;SDS011;17847;31.524;74.366;2022-12-22T17:20:20;440.27;;;152.57;;
31224;SDS011;17847;31.524;74.366;2022-12-22T17:23:09;429.05;;;147.80;;
31224;SDS011;17847;31.524;74.366;2022-12-22T17:26:24;434.73;;;145.73;;
31224;SDS011;17847;31.524;74.366;2022-12-22T17:29:16;438.38;;;143.75;;
31224;SDS011;17847;31.524;74.366;2022-12-22T17:32:11;409.67;;;142.60;;
31224;SDS011;17847;31.524;74.366;2022-12-22T17:34:54;443.97;;;148.87;;
31224;SDS011;17847;31.524;74.366;2022-12-22T17:37:43;417.67;;;141.32;;
31224;SDS011;17847;31.524;74.366;2022-12-22T17:40:27;437.20;;;139.38;;
31224;SDS011;17847;31.524;74.366;2022-12-22T17:43:21;406.88;;;139.98;;
31224;SDS011;17847;31.524;74.366;2022-12-22T17:45:57;398.52;;;136.65;;
31224;SDS011;17847;31.524;74.366;2022-12-22T17:48:53;408.35;;;136.43;;
31224;SDS011;17847;31.524;74.366;2022-12-22T17:51:28;419.88;;;134.05;;
31224;SDS011;17847;31.524;74.366;2022-12-22T17:54:25;412.83;;;136.32;;
31224;SDS011;17847;31.524;74.366;2022-12-22T17:57:28;392.80;;;132.68;;
31224;SDS011;17847;31.524;74.366;2022-12-22T18:00:19;405.33;;;130.52;;
31224;SDS011;17847;31.524;74.366;2022-12-22T18:03:10;411.80;;;134.05;;
31224;SDS011;17847;31.524;74.366;2022-12-22T18:05:53;397.20;;;131.82;;
31224;SDS011;17847;31.524;74.366;2022-12-22T18:08:42;415.30;;;136.18;;
31224;SDS011;17847;31.524;74.366;2022-12-22T18:11:24;404.55;;;139.38;;
31224;SDS011;17847;31.524;74.366;2022-12-22T18:14:12;400.58;;;136.73;;
31224;SDS011;17847;31.524;74.366;2022-12-22T18:17:02;401.63;;;131.02;;
31224;SDS011;17847;31.524;74.366;2022-12-22T18:19:37;404.95;;;131.98;;
31224;SDS011;17847;31.524;74.366;2022-12-22T18:22:33;405.58;;;134.75;;
31224;SDS011;17847;31.524;74.366;2022-12-22T18:25:23;399.98;;;135.48;;
31224;SDS011;17847;31.524;74.366;2022-12-22T18:28:15;430.77;;;137.27;;
31224;SDS011;17847;31.524;74.366;2022-12-22T18:30:51;391.65;;;132.50;;
31224;SDS011;17847;31.524;74.366;2022-12-22T18:33:47;378.58;;;130.35;;